createdAt,value
2022-10-07T00:01:05.172Z,0.85
2022-10-07T00:03:33.203Z,1.55
2022-10-07T00:06:13.611Z,0.90
2022-10-07T00:08:43.563Z,0.98
2022-10-07T00:11:29.287Z,1.02
2022-10-07T00:13:59.485Z,0.90
2022-10-07T00:16:30.335Z,0.75
2022-10-07T00:19:00.723Z,1.13
2022-10-07T00:21:31.070Z,0.95
2022-10-07T00:23:58.940Z,1.00
2022-10-07T00:26:29.775Z,0.90
2022-10-07T00:28:57.647Z,0.85
2022-10-07T00:31:28.740Z,0.70
2022-10-07T00:33:57.056Z,1.27
2022-10-07T00:36:30.618Z,0.90
2022-10-07T00:39:04.259Z,0.57
2022-10-07T00:41:35.098Z,0.70
2022-10-07T00:44:53.762Z,0.82
2022-10-07T00:47:29.859Z,1.83
2022-10-07T00:50:11.421Z,1.38
2022-10-07T00:52:42.409Z,1.33
2022-10-07T00:55:17.559Z,1.00
2022-10-07T00:57:48.905Z,0.70
2022-10-07T01:00:16.528Z,0.90
2022-10-07T01:02:45.295Z,0.50
2022-10-07T01:05:14.262Z,1.00
2022-10-07T01:07:45.538Z,1.40
2022-10-07T01:10:15.555Z,0.80
2022-10-07T01:13:07.426Z,1.30
2022-10-07T01:15:56.308Z,0.82
2022-10-07T01:18:36.173Z,0.70
2022-10-07T01:21:37.907Z,0.80
2022-10-07T01:24:47.772Z,1.17
2022-10-07T01:27:23.827Z,1.30
2022-10-07T01:30:06.169Z,0.90
2022-10-07T01:35:18.541Z,1.20
2022-10-07T01:37:52.897Z,0.88
2022-10-07T01:40:30.264Z,1.80
2022-10-07T01:42:58.065Z,0.95
2022-10-07T01:45:28.074Z,1.52
2022-10-07T01:47:55.512Z,1.65
2022-10-07T01:50:27.375Z,1.13
2022-10-07T01:53:25.439Z,1.38
2022-10-07T01:56:31.499Z,1.23
2022-10-07T01:59:23.518Z,1.05
2022-10-07T02:02:14.579Z,0.88
2022-10-07T02:04:59.142Z,0.93
2022-10-07T02:07:52.289Z,1.42
2022-10-07T02:10:46.489Z,1.73
2022-10-07T02:13:28.819Z,1.10
2022-10-07T02:16:01.995Z,0.98
2022-10-07T02:18:31.683Z,1.30
2022-10-07T02:21:04.063Z,0.77
2022-10-07T02:23:34.388Z,1.27
2022-10-07T02:26:04.248Z,1.92
2022-10-07T02:28:33.274Z,0.93
2022-10-07T02:31:04.085Z,0.95
2022-10-07T02:33:33.445Z,0.95
2022-10-07T02:36:13.375Z,0.88
2022-10-07T02:38:40.919Z,1.10
2022-10-07T02:41:35.967Z,1.25
2022-10-07T02:44:26.012Z,1.55
2022-10-07T02:47:18.961Z,0.60
2022-10-07T02:49:51.825Z,1.15
2022-10-07T02:52:21.469Z,1.13
2022-10-07T02:55:04.677Z,0.90
2022-10-07T02:57:42.397Z,1.13
2022-10-07T03:00:12.507Z,1.38
2022-10-07T03:03:03.282Z,1.35
2022-10-07T03:05:44.879Z,1.08
2022-10-07T03:08:12.527Z,1.35
2022-10-07T03:10:42.345Z,0.85
2022-10-07T03:13:11.721Z,0.95
2022-10-07T03:15:43.176Z,0.70
2022-10-07T03:18:29.290Z,1.33
2022-10-07T03:21:10.364Z,0.98
2022-10-07T03:23:38.381Z,1.60
2022-10-07T03:26:05.969Z,1.10
2022-10-07T03:28:38.291Z,1.08
2022-10-07T03:31:09.239Z,1.33
2022-10-07T03:33:39.372Z,1.13
2022-10-07T03:36:09.162Z,1.05
2022-10-07T03:38:38.672Z,0.90
2022-10-07T03:41:06.614Z,0.70
2022-10-07T03:43:34.944Z,1.10
2022-10-07T03:46:05.397Z,1.05
2022-10-07T03:48:35.498Z,2.00
2022-10-07T03:51:03.481Z,1.05
2022-10-07T03:53:37.378Z,1.30
2022-10-07T03:56:05.181Z,1.23
2022-10-07T03:58:33.890Z,1.17
2022-10-07T04:01:07.903Z,0.93
2022-10-07T04:03:37.662Z,0.88
2022-10-07T04:06:05.845Z,1.00
2022-10-07T04:08:35.085Z,1.48
2022-10-07T04:11:04.302Z,0.95
2022-10-07T04:13:34.116Z,1.60
2022-10-07T04:16:08.939Z,1.40
2022-10-07T04:18:37.383Z,0.93
2022-10-07T04:21:05.628Z,0.73
2022-10-07T04:23:35.458Z,1.50
2022-10-07T04:26:09.321Z,1.17
2022-10-07T04:28:38.553Z,1.25
2022-10-07T04:31:11.359Z,1.33
2022-10-07T04:33:42.662Z,0.93
2022-10-07T04:36:12.946Z,1.10
2022-10-07T04:38:54.643Z,1.15
2022-10-07T04:41:26.816Z,1.25
2022-10-07T04:43:57.524Z,1.27
2022-10-07T04:46:28.598Z,1.92
2022-10-07T04:49:05.302Z,1.98
2022-10-07T04:51:32.965Z,1.90
2022-10-07T04:54:01.568Z,2.22
2022-10-07T04:56:38.912Z,0.77
2022-10-07T04:59:08.877Z,1.57
2022-10-07T05:01:38.409Z,0.90
2022-10-07T05:04:05.962Z,2.57
2022-10-07T05:06:34.155Z,2.00
2022-10-07T05:09:01.758Z,1.50
2022-10-07T05:11:32.028Z,1.17
2022-10-07T05:14:08.666Z,1.23
2022-10-07T05:16:37.178Z,1.93
2022-10-07T05:19:05.981Z,1.75
2022-10-07T05:21:33.909Z,1.10
2022-10-07T05:24:02.550Z,1.20
2022-10-07T05:26:35.575Z,1.73
2022-10-07T05:29:05.168Z,1.27
2022-10-07T05:31:38.419Z,1.40
2022-10-07T05:34:07.837Z,1.80
2022-10-07T05:36:37.051Z,1.20
2022-10-07T05:39:06.307Z,1.75
2022-10-07T05:41:45.561Z,1.30
2022-10-07T05:44:15.444Z,1.53
2022-10-07T05:46:43.535Z,1.25
2022-10-07T05:49:12.707Z,1.13
2022-10-07T05:51:41.255Z,1.37
2022-10-07T05:54:08.771Z,1.75
2022-10-07T05:56:40.608Z,1.70
2022-10-07T05:59:08.452Z,2.20
2022-10-07T06:01:37.914Z,1.70
2022-10-07T06:04:11.934Z,1.50
2022-10-07T06:06:42.496Z,0.80
2022-10-07T06:09:30.574Z,2.55
2022-10-07T06:12:19.231Z,1.30
2022-10-07T06:14:48.175Z,1.33
2022-10-07T06:17:17.062Z,1.92
2022-10-07T06:19:46.503Z,1.60
2022-10-07T06:22:15.552Z,1.90
2022-10-07T06:24:43.855Z,1.42
2022-10-07T06:27:11.684Z,1.30
2022-10-07T06:29:40.982Z,2.08
2022-10-07T06:32:08.901Z,1.60
2022-10-07T06:34:36.280Z,2.30
2022-10-07T06:37:03.574Z,2.60
2022-10-07T06:39:31.249Z,2.55
2022-10-07T06:41:58.570Z,2.63
2022-10-07T06:44:39.418Z,2.17
2022-10-07T06:47:11.883Z,1.77
2022-10-07T06:49:41.320Z,2.25
2022-10-07T06:52:08.901Z,1.75
2022-10-07T06:54:37.285Z,2.28
2022-10-07T06:57:20.422Z,2.50
2022-10-07T06:59:55.094Z,2.35
2022-10-07T07:02:25.426Z,2.40
2022-10-07T07:04:57.554Z,2.70
2022-10-07T07:07:25.597Z,2.85
2022-10-07T07:09:53.065Z,2.30
2022-10-07T07:12:25.380Z,2.00
2022-10-07T07:14:54.589Z,1.98
2022-10-07T07:17:22.289Z,2.65
2022-10-07T07:19:49.886Z,2.50
2022-10-07T07:22:18.233Z,3.15
2022-10-07T07:24:46.280Z,2.35
2022-10-07T07:27:15.190Z,3.13
2022-10-07T07:29:43.955Z,2.92
2022-10-07T07:32:12.521Z,2.50
2022-10-07T07:34:42.956Z,2.08
2022-10-07T07:37:14.691Z,2.03
2022-10-07T07:39:47.208Z,2.42
2022-10-07T07:42:17.416Z,3.00
2022-10-07T07:44:45.207Z,3.53
2022-10-07T07:47:17.113Z,2.60
2022-10-07T07:49:46.124Z,3.55
2022-10-07T07:52:19.502Z,3.13
2022-10-07T07:54:48.833Z,2.90
2022-10-07T07:57:16.404Z,2.85
2022-10-07T07:59:44.162Z,2.85
2022-10-07T08:02:16.202Z,2.58
2022-10-07T08:04:47.631Z,2.67
2022-10-07T08:07:15.312Z,2.47
2022-10-07T08:09:45.742Z,2.58
2022-10-07T08:12:14.771Z,2.13
2022-10-07T08:14:43.404Z,2.60
2022-10-07T08:17:12.396Z,2.85
2022-10-07T08:19:40.434Z,3.00
2022-10-07T08:22:09.487Z,2.92
2022-10-07T08:24:37.772Z,2.97
2022-10-07T08:27:05.292Z,2.60
2022-10-07T08:29:32.875Z,2.45
2022-10-07T08:32:00.367Z,1.75
2022-10-07T08:34:27.727Z,1.33
2022-10-07T08:36:56.258Z,1.80
2022-10-07T08:39:24.749Z,1.73
2022-10-07T08:42:13.738Z,1.55
2022-10-07T08:44:44.666Z,1.33
2022-10-07T08:47:30.430Z,1.45
2022-10-07T08:50:18.287Z,1.23
2022-10-07T08:53:04.184Z,2.00
2022-10-07T08:55:55.795Z,1.25
2022-10-07T08:59:02.200Z,1.27
2022-10-07T09:01:45.584Z,1.45
2022-10-07T09:04:53.050Z,1.60
2022-10-07T09:07:36.296Z,1.52
2022-10-07T09:10:30.197Z,1.65
2022-10-07T09:13:20.668Z,1.25
2022-10-07T09:16:14.376Z,1.08
2022-10-07T09:18:53.391Z,0.77
2022-10-07T09:21:31.420Z,1.08
2022-10-07T09:24:12.842Z,0.60
2022-10-07T09:26:40.846Z,1.23
2022-10-07T09:29:10.204Z,0.77
2022-10-07T09:31:39.003Z,1.00
2022-10-07T09:34:13.232Z,0.93
2022-10-07T09:37:13.493Z,0.80
2022-10-07T09:39:42.498Z,0.93
2022-10-07T09:42:49.700Z,0.63
2022-10-07T09:45:25.428Z,0.60
2022-10-07T09:47:56.610Z,0.90
2022-10-07T09:50:41.767Z,0.60
2022-10-07T09:53:54.234Z,1.13
2022-10-07T09:56:54.641Z,0.70
2022-10-07T09:59:30.244Z,1.05
2022-10-07T10:02:22.547Z,0.73
2022-10-07T10:04:56.456Z,0.50
2022-10-07T10:07:34.465Z,0.68
2022-10-07T10:10:16.706Z,1.15
2022-10-07T10:12:49.962Z,0.70
2022-10-07T10:15:39.609Z,0.40
2022-10-07T10:18:25.137Z,1.20
2022-10-07T10:20:52.602Z,0.70
2022-10-07T10:23:35.849Z,0.88
2022-10-07T10:26:34.156Z,0.70
2022-10-07T10:29:27.538Z,0.60
2022-10-07T10:32:09.580Z,0.90
2022-10-07T10:37:37.254Z,0.70
2022-10-07T10:41:04.053Z,0.90
2022-10-07T10:43:55.288Z,0.80
2022-10-07T10:46:52.032Z,0.90
2022-10-07T10:49:42.179Z,1.30
2022-10-07T10:52:25.919Z,0.80
2022-10-07T10:55:35.081Z,5.63
2022-10-07T10:58:39.249Z,1.50
2022-10-07T11:01:34.543Z,0.68
2022-10-07T11:04:24.550Z,1.00
2022-10-07T11:07:00.555Z,0.68
2022-10-07T11:09:51.349Z,1.10
2022-10-07T11:12:30.715Z,1.02
2022-10-07T11:15:04.884Z,0.82
2022-10-07T11:17:37.743Z,0.90
2022-10-07T11:20:25.375Z,0.75
2022-10-07T11:23:00.488Z,0.95
2022-10-07T11:25:38.700Z,0.75
2022-10-07T11:28:16.149Z,0.50
2022-10-07T11:30:54.721Z,0.80
2022-10-07T11:33:32.619Z,1.05
2022-10-07T11:36:09.248Z,1.00
2022-10-07T11:38:39.043Z,0.98
2022-10-07T11:41:42.255Z,0.50
2022-10-07T11:44:22.645Z,0.82
2022-10-07T11:46:51.736Z,0.70
2022-10-07T11:49:55.904Z,0.85
2022-10-07T11:52:28.115Z,0.80
2022-10-07T11:55:09.250Z,0.77
2022-10-07T11:57:43.323Z,0.97
2022-10-07T12:00:31.972Z,1.10
2022-10-07T12:03:38.048Z,0.70
2022-10-07T12:06:11.814Z,0.45
2022-10-07T12:08:42.119Z,0.50
2022-10-07T12:11:45.827Z,1.13
2022-10-07T12:14:42.106Z,0.75
2022-10-07T12:17:21.340Z,0.60
2022-10-07T12:20:27.260Z,0.60
2022-10-07T12:23:37.724Z,0.40
2022-10-07T12:26:47.396Z,0.80
2022-10-07T12:29:34.094Z,0.50
2022-10-07T12:32:01.706Z,0.90
2022-10-07T12:34:36.624Z,0.47
2022-10-07T12:38:00.984Z,0.50
2022-10-07T12:40:31.324Z,0.40
2022-10-07T12:43:10.690Z,0.40
2022-10-07T12:45:43.696Z,0.68
2022-10-07T12:48:20.614Z,0.60
2022-10-07T12:50:51.901Z,0.57
2022-10-07T12:53:24.636Z,0.40
2022-10-07T12:55:55.029Z,0.70
2022-10-07T12:59:14.471Z,0.50
2022-10-07T13:02:37.114Z,0.50
2022-10-07T13:08:36.231Z,0.68
2022-10-07T13:11:50.229Z,0.77
2022-10-07T13:14:38.743Z,0.60
2022-10-07T13:17:44.748Z,0.65
2022-10-07T13:20:33.384Z,0.68
2022-10-07T13:23:27.789Z,0.70
2022-10-07T13:25:57.531Z,0.98
2022-10-07T13:28:29.755Z,0.50
2022-10-07T13:31:13.821Z,0.50
2022-10-07T13:33:43.257Z,0.43
2022-10-07T13:36:23.306Z,0.70
2022-10-07T13:39:14.019Z,0.52
2022-10-07T13:41:47.549Z,0.60
2022-10-07T13:44:19.209Z,0.63
2022-10-07T13:47:07.158Z,0.38
2022-10-07T13:49:43.753Z,0.60
2022-10-07T13:52:39.905Z,0.60
2022-10-07T13:55:28.370Z,0.55
2022-10-07T13:57:57.936Z,0.52
2022-10-07T14:00:26.136Z,0.70
2022-10-07T14:02:54.531Z,0.40
2022-10-07T14:05:29.409Z,0.40
2022-10-07T14:07:59.477Z,0.65
2022-10-07T14:10:29.402Z,0.30
2022-10-07T14:13:03.486Z,0.20
2022-10-07T14:15:33.733Z,0.52
2022-10-07T14:18:11.246Z,0.30
2022-10-07T14:20:46.265Z,0.22
2022-10-07T14:23:31.528Z,0.20
2022-10-07T14:26:07.040Z,0.95
2022-10-07T14:28:36.320Z,0.57
2022-10-07T14:31:40.525Z,0.15
2022-10-07T14:35:01.560Z,0.20
2022-10-07T14:37:31.838Z,0.20
2022-10-07T14:39:59.608Z,0.30
2022-10-07T14:42:32.239Z,0.20
2022-10-07T14:45:03.088Z,0.45
2022-10-07T14:47:37.893Z,0.40
2022-10-07T14:50:05.730Z,0.30
2022-10-07T14:52:45.136Z,0.50
2022-10-07T14:55:19.691Z,0.30
2022-10-07T14:57:49.892Z,0.32
2022-10-07T15:00:22.486Z,0.40
2022-10-07T15:02:50.892Z,0.50
2022-10-07T15:05:19.079Z,0.45
2022-10-07T15:07:46.942Z,0.32
2022-10-07T15:10:20.199Z,0.30
2022-10-07T15:12:48.623Z,0.50
2022-10-07T15:15:16.648Z,0.98
2022-10-07T15:17:44.453Z,0.40
2022-10-07T15:20:15.088Z,0.47
2022-10-07T15:22:43.927Z,0.22
2022-10-07T15:25:12.606Z,0.63
2022-10-07T15:27:40.152Z,0.40
2022-10-07T15:30:09.131Z,0.40
2022-10-07T15:32:36.547Z,0.20
2022-10-07T15:35:04.197Z,0.30
2022-10-07T15:37:32.433Z,0.30
2022-10-07T15:39:59.966Z,0.30
2022-10-07T15:42:27.421Z,0.88
2022-10-07T15:44:54.818Z,0.30
2022-10-07T15:47:22.431Z,0.40
2022-10-07T15:49:50.027Z,0.35
2022-10-07T15:52:17.413Z,0.40
2022-10-07T15:54:46.623Z,0.20
2022-10-07T15:57:14.553Z,0.70
2022-10-07T15:59:42.394Z,0.65
2022-10-07T16:02:16.031Z,0.20
2022-10-07T16:04:44.999Z,0.35
2022-10-07T16:07:12.430Z,0.30
2022-10-07T16:09:40.045Z,0.85
2022-10-07T16:12:08.931Z,0.68
2022-10-07T16:14:36.380Z,0.60
2022-10-07T16:17:04.297Z,0.35
2022-10-07T16:19:31.697Z,0.93
2022-10-07T16:21:59.113Z,0.75
2022-10-07T16:24:29.017Z,0.60
2022-10-07T16:26:58.890Z,0.68
2022-10-07T16:29:44.638Z,0.70
2022-10-07T16:32:12.089Z,0.80
2022-10-07T16:34:43.575Z,0.70
2022-10-07T16:37:12.095Z,1.38
2022-10-07T16:39:39.589Z,0.80
2022-10-07T16:42:07.588Z,1.45
2022-10-07T16:44:35.367Z,4.25
2022-10-07T16:47:03.155Z,2.75
2022-10-07T16:49:30.623Z,3.55
2022-10-07T16:51:58.481Z,2.30
2022-10-07T16:54:26.199Z,1.90
2022-10-07T16:56:53.622Z,2.83
2022-10-07T16:59:23.923Z,3.85
2022-10-07T17:01:56.583Z,6.20
2022-10-07T17:04:25.519Z,6.97
2022-10-07T17:06:53.662Z,2.92
2022-10-07T17:09:22.074Z,3.50
2022-10-07T17:11:49.664Z,4.18
2022-10-07T17:14:19.718Z,3.80
2022-10-07T17:16:52.788Z,4.72
2022-10-07T17:19:22.695Z,3.95
2022-10-07T17:21:50.987Z,4.43
2022-10-07T17:24:19.742Z,4.90
2022-10-07T17:26:47.732Z,4.25
2022-10-07T17:29:18.330Z,4.40
2022-10-07T17:31:50.569Z,6.18
2022-10-07T17:34:20.429Z,4.38
2022-10-07T17:36:48.708Z,6.30
2022-10-07T17:39:17.167Z,6.72
2022-10-07T17:41:45.123Z,7.57
2022-10-07T17:44:13.181Z,7.95
2022-10-07T17:46:41.206Z,16.48
2022-10-07T17:49:13.326Z,15.10
2022-10-07T17:51:43.339Z,13.23
2022-10-07T17:54:13.366Z,16.00
2022-10-07T17:56:41.354Z,12.75
2022-10-07T17:59:08.802Z,13.38
2022-10-07T18:01:36.578Z,13.13
2022-10-07T18:04:10.219Z,12.27
2022-10-07T18:06:39.112Z,13.43
2022-10-07T18:09:08.160Z,11.65
2022-10-07T18:11:54.452Z,11.27
2022-10-07T18:14:41.320Z,10.27
2022-10-07T18:17:10.373Z,8.82
2022-10-07T18:19:39.774Z,7.80
2022-10-07T18:22:07.841Z,8.02
2022-10-07T18:24:35.152Z,7.10
2022-10-07T18:27:02.758Z,7.32
2022-10-07T18:29:33.252Z,6.15
2022-10-07T18:32:01.078Z,6.03
2022-10-07T18:34:28.650Z,5.60
2022-10-07T18:36:57.340Z,6.53
2022-10-07T18:39:27.897Z,4.88
2022-10-07T18:41:55.812Z,6.10
2022-10-07T18:44:23.245Z,4.93
2022-10-07T18:46:50.756Z,5.72
2022-10-07T18:49:18.207Z,5.30
2022-10-07T18:51:50.710Z,5.15
2022-10-07T18:54:19.230Z,4.68
2022-10-07T18:56:48.069Z,4.60
2022-10-07T18:59:15.717Z,4.55
2022-10-07T19:01:47.936Z,4.35
2022-10-07T19:04:18.240Z,4.20
2022-10-07T19:06:46.599Z,5.15
2022-10-07T19:09:17.005Z,4.43
2022-10-07T19:11:44.987Z,3.67
2022-10-07T19:14:12.898Z,4.32
2022-10-07T19:16:45.991Z,4.35
2022-10-07T19:19:17.251Z,4.55
2022-10-07T19:21:49.595Z,3.97
2022-10-07T19:24:17.431Z,4.07
2022-10-07T19:26:48.430Z,3.72
2022-10-07T19:29:18.143Z,3.75
2022-10-07T19:31:48.797Z,3.97
2022-10-07T19:34:21.795Z,4.15
2022-10-07T19:36:50.092Z,3.53
2022-10-07T19:39:20.068Z,4.10
2022-10-07T19:41:48.345Z,4.00
2022-10-07T19:44:16.520Z,3.47
2022-10-07T19:46:44.379Z,3.47
2022-10-07T19:49:12.581Z,3.58
2022-10-07T19:51:42.015Z,3.35
2022-10-07T19:54:12.094Z,4.28
2022-10-07T19:56:40.715Z,3.95
2022-10-07T19:59:13.126Z,4.93
2022-10-07T20:01:43.037Z,3.45
2022-10-07T20:04:20.720Z,3.92
2022-10-07T20:06:48.801Z,4.47
2022-10-07T20:09:17.661Z,4.00
2022-10-07T20:11:46.896Z,3.20
2022-10-07T20:14:15.249Z,5.30
2022-10-07T20:16:42.863Z,3.80
2022-10-07T20:19:18.596Z,4.15
2022-10-07T20:21:46.282Z,4.47
2022-10-07T20:24:16.344Z,4.60
2022-10-07T20:26:45.259Z,4.68
2022-10-07T20:29:15.662Z,4.45
2022-10-07T20:31:44.126Z,4.80
2022-10-07T20:34:18.463Z,4.22
2022-10-07T20:36:46.538Z,4.13
2022-10-07T20:39:37.989Z,4.40
2022-10-07T20:42:21.517Z,5.47
2022-10-07T20:44:50.826Z,5.30
2022-10-07T20:47:19.990Z,4.25
2022-10-07T20:49:50.761Z,4.32
2022-10-07T20:52:21.298Z,4.05
2022-10-07T20:54:49.244Z,4.53
2022-10-07T20:57:38.333Z,4.75
2022-10-07T21:00:10.436Z,3.95
2022-10-07T21:05:07.907Z,4.55
2022-10-07T21:07:35.325Z,5.45
2022-10-07T21:10:02.710Z,4.32
2022-10-07T21:12:30.081Z,4.95
2022-10-07T21:15:00.593Z,3.92
2022-10-07T21:17:28.039Z,6.15
2022-10-07T21:19:56.052Z,4.03
2022-10-07T21:22:23.596Z,4.68
2022-10-07T21:24:51.173Z,6.10
2022-10-07T21:27:18.504Z,4.50
2022-10-07T21:29:48.606Z,5.47
2022-10-07T21:32:16.254Z,5.35
2022-10-07T21:34:43.756Z,4.18
2022-10-07T21:37:11.412Z,5.32
2022-10-07T21:39:38.745Z,4.55
2022-10-07T21:42:06.182Z,4.53
2022-10-07T21:44:34.866Z,4.60
2022-10-07T21:47:02.315Z,4.65
2022-10-07T21:49:29.909Z,5.05
2022-10-07T21:51:57.337Z,4.15
2022-10-07T21:54:24.745Z,4.20
2022-10-07T21:56:52.152Z,5.22
2022-10-07T21:59:19.483Z,4.00
2022-10-07T22:01:47.014Z,3.95
2022-10-07T22:04:18.728Z,4.40
2022-10-07T22:07:04.734Z,5.00
2022-10-07T22:09:32.218Z,4.85
2022-10-07T22:11:59.680Z,4.22
2022-10-07T22:14:27.926Z,3.70
2022-10-07T22:16:55.345Z,3.97
2022-10-07T22:19:23.120Z,4.63
2022-10-07T22:21:50.555Z,4.82
2022-10-07T22:24:18.060Z,5.47
2022-10-07T22:26:47.744Z,3.92
2022-10-07T22:29:16.988Z,3.92
2022-10-07T22:31:44.980Z,5.60
2022-10-07T22:34:31.069Z,3.28
2022-10-07T22:36:58.623Z,3.80
2022-10-07T22:39:28.690Z,4.78
2022-10-07T22:41:57.039Z,4.97
2022-10-07T22:44:28.031Z,4.25
2022-10-07T22:46:56.567Z,4.55
2022-10-07T22:49:28.786Z,4.35
2022-10-07T22:51:59.819Z,4.57
2022-10-07T22:54:28.034Z,4.72
2022-10-07T22:56:55.684Z,4.70
2022-10-07T22:59:23.402Z,4.65
2022-10-07T23:01:50.829Z,4.95
2022-10-07T23:04:20.236Z,5.13
2022-10-07T23:06:47.891Z,3.92
2022-10-07T23:09:15.258Z,4.55
2022-10-07T23:11:42.955Z,5.63
2022-10-07T23:14:10.300Z,5.18
2022-10-07T23:16:37.726Z,4.90
2022-10-07T23:19:05.210Z,5.13
2022-10-07T23:21:36.920Z,4.88
2022-10-07T23:24:08.123Z,4.30
2022-10-07T23:26:37.181Z,3.75
2022-10-07T23:29:04.586Z,5.25
2022-10-07T23:31:32.849Z,4.75
2022-10-07T23:34:01.907Z,4.13
2022-10-07T23:36:30.388Z,4.20
2022-10-07T23:38:59.781Z,5.10
2022-10-07T23:41:29.765Z,4.35
2022-10-07T23:43:59.189Z,4.95
2022-10-07T23:46:27.826Z,3.75
2022-10-07T23:48:56.099Z,4.32
2022-10-07T23:51:25.326Z,4.68
2022-10-07T23:53:52.703Z,4.85
2022-10-07T23:56:20.148Z,4.15
2022-10-07T23:58:47.656Z,4.85
